Time;durP1;ratioP1;P1;durP2;ratioP2;P2;SDS_P1;SDS_P2;PMS_P1;PMS_P2;Temp;Humidity;BMP_temperature;BMP_pressure;BME280_temperature;BME280_humidity;BME280_pressure;Samples;Min_cycle;Max_cycle;Signal;HPM_P1;HPM_P2
2022/06/30 00:01:12;;;;;;;0.60;0.30;;;18.20;61.10;20.40;93649.00;;;;10559975;27;45227;-63
2022/06/30 00:06:33;;;;;;;0.20;0.20;;;18.20;61.10;20.40;93630.00;;;;10560232;27;45249;-63
2022/06/30 00:11:53;;;;;;;0.25;0.20;;;18.20;61.20;20.40;93620.00;;;;10567175;27;45836;-63
2022/06/30 00:17:15;;;;;;;0.20;0.15;;;18.20;61.10;20.40;93632.00;;;;10566769;27;45182;-64
2022/06/30 00:22:36;;;;;;;0.28;0.25;;;18.20;61.20;20.40;93633.00;;;;10566879;27;45792;-63
2022/06/30 00:27:56;;;;;;;0.20;0.20;;;18.20;61.30;20.40;93635.00;;;;10566031;27;45192;-63
2022/06/30 00:33:19;;;;;;;0.20;0.20;;;18.20;61.30;20.40;93630.00;;;;10566567;27;45178;-63
2022/06/30 00:38:40;;;;;;;0.30;0.30;;;18.20;61.20;20.40;93623.00;;;;10565583;27;45726;-63
2022/06/30 00:44:00;;;;;;;0.35;0.30;;;18.20;61.40;20.40;93639.00;;;;10565816;27;45209;-64
2022/06/30 00:49:22;;;;;;;0.20;0.20;;;18.20;61.40;20.40;93635.00;;;;10565531;27;45513;-63
2022/06/30 00:54:45;;;;;;;0.20;0.20;;;18.20;61.30;20.40;93620.00;;;;10565563;27;45190;-63
2022/06/30 01:00:07;;;;;;;0.43;0.40;;;18.20;61.30;20.40;93626.00;;;;10561237;27;45219;-63
2022/06/30 01:05:29;;;;;;;0.30;0.30;;;18.20;61.20;20.40;93640.00;;;;10561214;27;45278;-63
2022/06/30 01:16:29;;;;;;;0.20;0.20;;;18.20;61.30;20.30;93618.00;;;;10564648;27;45162;-63
2022/06/30 01:22:01;;;;;;;0.40;0.20;;;18.20;61.20;20.40;93627.00;;;;10564678;27;45128;-63
2022/06/30 01:27:21;;;;;;;0.32;0.20;;;18.20;61.20;20.40;93629.00;;;;10564055;27;45174;-63
2022/06/30 01:32:42;;;;;;;0.30;0.30;;;18.20;61.30;20.40;93626.00;;;;10564459;27;45208;-63
2022/06/30 01:38:04;;;;;;;0.20;0.20;;;18.20;61.20;20.40;93606.00;;;;10563349;27;45885;-63
2022/06/30 01:43:24;;;;;;;0.17;0.17;;;18.20;61.20;20.30;93621.00;;;;10564502;27;45162;-63
2022/06/30 01:48:45;;;;;;;0.20;0.20;;;18.20;61.20;20.40;93606.00;;;;10563669;27;45257;-63
2022/06/30 01:54:08;;;;;;;0.68;0.30;;;18.20;61.30;20.40;93624.00;;;;10563565;27;45290;-63
2022/06/30 01:59:28;;;;;;;0.47;0.30;;;18.20;61.20;20.40;93608.00;;;;10563249;27;45761;-63
2022/06/30 02:04:50;;;;;;;0.57;0.30;;;18.20;61.40;20.40;93625.00;;;;10563547;27;45784;-63
2022/06/30 02:10:15;;;;;;;0.30;0.30;;;18.20;61.30;20.40;93618.00;;;;10562851;27;45315;-64
2022/06/30 02:15:36;;;;;;;0.30;0.30;;;18.20;61.40;20.40;93606.00;;;;10563126;27;45217;-63
2022/06/30 02:20:58;;;;;;;0.55;0.40;;;18.20;61.40;20.30;93615.00;;;;10562919;27;45925;-63
2022/06/30 02:26:20;;;;;;;0.73;0.30;;;18.20;61.30;20.30;93592.00;;;;10562478;27;45738;-63
2022/06/30 02:31:40;;;;;;;0.30;0.30;;;18.20;61.30;20.40;93603.00;;;;10561469;27;45761;-63
2022/06/30 02:37:01;;;;;;;0.38;0.30;;;18.20;61.30;20.30;93607.00;;;;10561560;27;45183;-64
2022/06/30 02:42:23;;;;;;;0.30;0.30;;;18.20;61.30;20.30;93593.00;;;;10562433;27;45765;-63
2022/06/30 02:47:45;;;;;;;0.22;0.22;;;18.20;61.30;20.30;93592.00;;;;10562198;27;45377;-63
2022/06/30 02:53:05;;;;;;;0.40;0.38;;;18.20;61.30;20.30;93566.00;;;;10562024;27;45260;-63
2022/06/30 02:58:27;;;;;;;0.30;0.30;;;18.20;61.20;20.40;93573.00;;;;10561189;27;45193;-63
2022/06/30 03:03:48;;;;;;;0.20;0.20;;;18.20;61.20;20.30;93579.00;;;;10561668;27;45217;-63
2022/06/30 03:09:09;;;;;;;0.20;0.20;;;18.20;61.20;20.30;93568.00;;;;10561186;27;45853;-63
2022/06/30 03:14:31;;;;;;;0.30;0.30;;;18.20;61.20;20.30;93571.00;;;;10561352;27;45144;-64
2022/06/30 03:19:51;;;;;;;0.20;0.20;;;18.20;61.20;20.30;93568.00;;;;10561312;27;45851;-63
2022/06/30 03:25:12;;;;;;;0.30;0.30;;;18.20;61.10;20.30;93558.00;;;;10561025;27;45159;-63
2022/06/30 03:30:34;;;;;;;0.65;0.40;;;18.20;61.10;20.30;93555.00;;;;10560863;27;45129;-63
2022/06/30 03:35:54;;;;;;;0.98;0.45;;;18.20;61.10;20.30;93560.00;;;;10560399;27;45175;-63
2022/06/30 03:41:15;;;;;;;0.50;0.40;;;18.20;61.10;20.30;93550.00;;;;10562184;27;45841;-63
2022/06/30 03:46:37;;;;;;;0.45;0.40;;;18.20;61.10;20.30;93561.00;;;;10567811;27;45363;-63
2022/06/30 03:51:58;;;;;;;0.55;0.40;;;18.20;61.10;20.30;93560.00;;;;10567926;27;45791;-63
2022/06/30 03:57:18;;;;;;;0.75;0.30;;;18.20;61.00;20.30;93563.00;;;;10567699;27;45681;-63
2022/06/30 04:02:40;;;;;;;0.52;0.30;;;18.20;61.00;20.30;93560.00;;;;10567811;27;45695;-63
2022/06/30 04:08:01;;;;;;;0.30;0.30;;;18.20;61.10;20.30;93570.00;;;;10566811;27;45125;-63
2022/06/30 04:13:22;;;;;;;0.40;0.38;;;18.20;61.00;20.30;93565.00;;;;10567140;27;45263;-63
2022/06/30 04:18:43;;;;;;;0.47;0.40;;;18.20;61.00;20.30;93563.00;;;;10566674;27;45873;-63
2022/06/30 04:24:05;;;;;;;0.55;0.38;;;18.20;61.00;20.30;93570.00;;;;10566513;27;45254;-63
2022/06/30 04:29:25;;;;;;;0.80;0.35;;;18.10;61.00;20.30;93577.00;;;;10566266;27;45177;-63
2022/06/30 04:34:47;;;;;;;0.25;0.22;;;18.20;61.00;20.30;93568.00;;;;10566500;27;45198;-63
2022/06/30 04:45:48;;;;;;;0.80;0.50;;;18.20;61.00;20.30;93548.00;;;;10565595;27;45723;-63
2022/06/30 04:51:10;;;;;;;0.40;0.40;;;18.10;61.00;20.30;93568.00;;;;10565670;27;45778;-63
2022/06/30 04:56:31;;;;;;;0.73;0.40;;;18.20;61.10;20.30;93549.00;;;;10564804;27;45190;-63
2022/06/30 05:01:51;;;;;;;1.17;0.40;;;18.20;61.10;20.30;93568.00;;;;10565600;27;45197;-64
2022/06/30 05:07:13;;;;;;;0.32;0.28;;;18.20;61.00;20.30;93557.00;;;;10565357;27;45213;-63
2022/06/30 05:12:33;;;;;;;0.63;0.50;;;18.10;61.00;20.30;93559.00;;;;10565029;27;45186;-63
2022/06/30 05:17:54;;;;;;;0.50;0.47;;;18.10;60.90;20.30;93557.00;;;;10564554;27;45212;-63
2022/06/30 05:23:16;;;;;;;0.80;0.50;;;18.20;61.10;20.30;93565.00;;;;10565538;27;45368;-63
2022/06/30 05:28:37;;;;;;;0.40;0.40;;;18.10;61.00;20.30;93568.00;;;;10564344;27;45837;-63
2022/06/30 05:33:57;;;;;;;0.73;0.40;;;18.10;61.00;20.30;93550.00;;;;10564564;27;45757;-64
2022/06/30 05:39:19;;;;;;;0.50;0.50;;;18.10;61.00;20.30;93538.00;;;;10563866;27;45166;-63
2022/06/30 05:44:40;;;;;;;0.57;0.50;;;18.10;61.00;20.30;93551.00;;;;10563778;27;45721;-63
2022/06/30 05:50:00;;;;;;;0.50;0.50;;;18.10;61.00;20.30;93546.00;;;;10563775;27;45121;-63
2022/06/30 05:55:23;;;;;;;0.40;0.40;;;18.10;61.00;20.30;93555.00;;;;10563594;27;45745;-63
2022/06/30 06:00:43;;;;;;;0.40;0.40;;;18.10;61.00;20.30;93540.00;;;;10563118;27;45108;-63
2022/06/30 06:06:04;;;;;;;0.60;0.47;;;18.10;61.00;20.30;93540.00;;;;10563159;27;45422;-63
2022/06/30 06:11:26;;;;;;;1.10;0.50;;;18.10;61.00;20.30;93547.00;;;;10563086;27;45353;-63
2022/06/30 06:16:47;;;;;;;0.88;0.52;;;18.10;61.00;20.30;93547.00;;;;10562356;27;45853;-64
2022/06/30 06:22:07;;;;;;;0.43;0.40;;;18.10;61.00;20.30;93545.00;;;;10561923;27;45245;-63
2022/06/30 06:27:29;;;;;;;0.60;0.47;;;18.10;61.00;20.30;93544.00;;;;10561832;27;45320;-63
2022/06/30 06:32:49;;;;;;;0.57;0.50;;;18.10;61.10;20.30;93549.00;;;;10562857;27;46094;-63
2022/06/30 06:38:11;;;;;;;0.57;0.55;;;18.10;61.00;20.30;93558.00;;;;10561540;27;46434;-63
2022/06/30 06:43:33;;;;;;;0.60;0.50;;;18.10;61.00;20.30;93541.00;;;;10562440;27;45277;-63
2022/06/30 06:48:56;;;;;;;0.40;0.40;;;18.10;61.10;20.30;93542.00;;;;10561466;27;45159;-64
2022/06/30 06:54:16;;;;;;;0.40;0.40;;;18.10;61.10;20.30;93543.00;;;;10560726;27;45795;-63
2022/06/30 06:59:38;;;;;;;0.60;0.60;;;18.10;61.10;20.30;93541.00;;;;10561449;27;45156;-63
2022/06/30 07:04:59;;;;;;;0.77;0.50;;;18.10;61.10;20.30;93549.00;;;;10561946;27;45791;-63
2022/06/30 07:10:20;;;;;;;1.15;0.60;;;18.10;61.10;20.30;93550.00;;;;10561113;27;45844;-63
2022/06/30 07:15:42;;;;;;;0.60;0.60;;;18.10;61.10;20.30;93531.00;;;;10561977;27;45107;-63
2022/06/30 07:21:02;;;;;;;0.50;0.50;;;18.10;61.10;20.30;93549.00;;;;10568598;27;45240;-63
2022/06/30 07:26:23;;;;;;;0.40;0.40;;;18.10;61.10;20.30;93543.00;;;;10568865;27;45315;-63
2022/06/30 07:31:45;;;;;;;0.50;0.50;;;18.10;61.10;20.30;93532.00;;;;10568427;27;45229;-64
2022/06/30 07:37:06;;;;;;;0.60;0.60;;;18.10;61.10;20.30;93540.00;;;;10567809;27;45159;-63
2022/06/30 07:42:26;;;;;;;0.40;0.40;;;18.10;61.00;20.30;93522.00;;;;10568463;27;45195;-63
2022/06/30 07:47:48;;;;;;;0.63;0.50;;;18.10;61.00;20.30;93532.00;;;;10567650;27;45174;-63
2022/06/30 07:53:09;;;;;;;0.40;0.40;;;18.10;61.00;20.30;93518.00;;;;10567584;27;45219;-63
2022/06/30 07:58:29;;;;;;;0.45;0.40;;;18.10;61.00;20.30;93527.00;;;;10567317;27;45231;-63
2022/06/30 08:03:51;;;;;;;0.85;0.45;;;18.10;61.00;20.30;93526.00;;;;10567629;27;45162;-63
2022/06/30 08:09:12;;;;;;;0.50;0.50;;;18.10;60.90;20.30;93519.00;;;;10566737;27;45890;-63
2022/06/30 08:14:34;;;;;;;1.20;0.70;;;18.20;61.10;20.40;93519.00;;;;10567051;27;45142;-63
2022/06/30 08:19:56;;;;;;;1.08;0.60;;;18.20;61.70;20.40;93510.00;;;;10566961;27;45103;-63
2022/06/30 08:25:16;;;;;;;1.90;0.75;;;18.20;61.30;20.30;93513.00;;;;10567214;27;45120;-63
2022/06/30 08:30:37;;;;;;;3.47;0.60;;;18.20;61.30;20.40;93513.00;;;;10565390;27;45896;-63
2022/06/30 08:35:59;;;;;;;8.48;1.02;;;18.20;61.30;20.40;93509.00;;;;10566665;27;45861;-62
2022/06/30 08:46:59;;;;;;;16.30;1.58;;;18.20;61.70;20.30;93526.00;;;;10565398;27;45214;-62
2022/06/30 08:52:22;;;;;;;17.38;1.30;;;18.20;61.80;20.30;93518.00;;;;10565855;27;45229;-62
2022/06/30 08:57:45;;;;;;;23.50;2.08;;;18.10;61.70;20.30;93519.00;;;;10565736;27;45187;-65
2022/06/30 09:03:06;;;;;;;25.08;2.15;;;18.20;61.80;20.30;93529.00;;;;10565674;27;45276;-62
2022/06/30 09:08:28;;;;;;;22.98;2.40;;;18.20;61.80;20.30;93523.00;;;;10565830;27;45819;-62
2022/06/30 09:13:49;;;;;;;17.73;1.90;;;18.20;61.80;20.30;93523.00;;;;10564580;27;45180;-63
2022/06/30 09:19:10;;;;;;;19.50;2.60;;;18.20;61.80;20.30;93516.00;;;;10564594;27;45792;-62
2022/06/30 09:24:32;;;;;;;11.07;1.70;;;18.10;61.70;20.30;93529.00;;;;10565269;27;45518;-62
2022/06/30 09:29:56;;;;;;;16.25;1.83;;;18.10;61.60;20.30;93515.00;;;;10564609;27;45182;-62
2022/06/30 09:35:18;;;;;;;14.15;1.90;;;18.20;61.70;20.30;93514.00;;;;10564641;27;45765;-62
2022/06/30 09:41:00;;;;;;;13.88;1.98;;;18.20;61.60;20.30;93505.00;;;;10562937;27;45177;-62
2022/06/30 09:46:21;;;;;;;18.25;2.10;;;18.10;61.60;20.30;93507.00;;;;10564115;27;45157;-62
2022/06/30 09:51:42;;;;;;;15.65;2.22;;;18.10;61.50;20.30;93509.00;;;;10563750;27;45786;-64
2022/06/30 09:57:08;;;;;;;16.23;1.90;;;18.20;61.50;20.30;93511.00;;;;10563240;27;45196;-61
2022/06/30 10:02:32;;;;;;;9.10;1.50;;;18.10;61.40;20.30;93508.00;;;;10563692;27;45700;-62
2022/06/30 10:07:52;;;;;;;15.80;2.03;;;18.10;61.40;20.30;93510.00;;;;10563145;27;45230;-62
2022/06/30 10:13:17;;;;;;;13.30;1.85;;;18.10;61.40;20.30;93505.00;;;;10563499;27;45249;-65
2022/06/30 10:18:39;;;;;;;13.43;2.13;;;18.20;61.50;20.30;93518.00;;;;10562550;27;45837;-65
2022/06/30 10:24:01;;;;;;;11.85;1.80;;;18.20;61.40;20.30;93504.00;;;;10562956;27;45180;-65
2022/06/30 10:29:23;;;;;;;8.73;1.58;;;18.10;61.40;20.30;93517.00;;;;10562758;27;45154;-65
2022/06/30 10:34:55;;;;;;;9.68;1.67;;;18.10;61.30;20.30;93519.00;;;;10562755;27;45156;-65
2022/06/30 10:40:36;;;;;;;9.43;1.55;;;18.10;61.30;20.30;93493.00;;;;10562247;27;45302;-65
2022/06/30 10:46:00;;;;;;;8.40;1.48;;;18.10;61.30;20.30;93497.00;;;;10561878;27;45163;-65
2022/06/30 10:51:22;;;;;;;6.50;1.60;;;18.10;61.30;20.30;93474.00;;;;10560904;27;45768;-65
2022/06/30 10:56:57;;;;;;;8.63;1.50;;;18.10;61.20;20.30;93484.00;;;;10561740;27;45816;-65
2022/06/30 11:02:27;;;;;;;6.07;1.35;;;18.10;61.20;20.30;93471.00;;;;10561725;27;44899;-65
2022/06/30 11:07:47;;;;;;;12.05;1.60;;;18.10;61.20;20.30;93463.00;;;;10561359;27;45802;-64
2022/06/30 11:13:08;;;;;;;8.40;1.50;;;18.10;61.20;20.30;93473.00;;;;10561735;27;45258;-64
2022/06/30 11:18:34;;;;;;;7.28;1.38;;;18.10;61.10;20.30;93473.00;;;;10561282;27;45270;-64
2022/06/30 11:23:56;;;;;;;5.95;1.23;;;18.10;61.10;20.30;93478.00;;;;10560990;27;45855;-65
2022/06/30 11:29:19;;;;;;;10.65;1.45;;;18.10;61.10;20.30;93480.00;;;;10561284;27;45577;-65
2022/06/30 11:34:41;;;;;;;5.63;1.20;;;18.10;61.10;20.30;93462.00;;;;10560951;27;45790;-64
2022/06/30 11:40:04;;;;;;;6.45;1.35;;;18.20;61.10;20.30;93472.00;;;;10575343;22;45194;-61
2022/06/30 11:45:29;;;;;;;8.75;1.42;;;18.10;61.00;20.30;93464.00;;;;10560643;27;45706;-61
2022/06/30 11:50:51;;;;;;;7.20;1.20;;;18.10;61.10;20.30;93492.00;;;;10560523;27;45180;-62
2022/06/30 11:56:12;;;;;;;5.05;1.10;;;18.20;61.10;20.30;93489.00;;;;10560203;27;45233;-62
2022/06/30 12:01:32;;;;;;;4.35;1.10;;;18.10;61.00;20.30;93485.00;;;;10561348;27;45667;-61
2022/06/30 12:06:54;;;;;;;3.17;0.90;;;18.10;61.00;20.30;93481.00;;;;10567175;27;45295;-62
2022/06/30 12:12:19;;;;;;;4.43;1.00;;;18.10;61.80;20.30;93480.00;;;;10567274;27;45294;-62
2022/06/30 12:17:43;;;;;;;4.22;1.02;;;18.10;61.00;20.30;93490.00;;;;10566711;27;45150;-63
2022/06/30 12:23:05;;;;;;;3.92;1.20;;;18.10;61.00;20.30;93491.00;;;;10567403;27;45157;-63
2022/06/30 12:28:26;;;;;;;3.53;0.95;;;18.20;61.00;20.30;93480.00;;;;10566594;27;45691;-63
2022/06/30 12:33:47;;;;;;;5.18;1.13;;;18.20;61.00;20.30;93476.00;;;;10567264;27;45197;-63
2022/06/30 12:39:15;;;;;;;5.15;0.95;;;18.20;61.00;20.30;93470.00;;;;10565710;27;45185;-63
2022/06/30 12:44:38;;;;;;;3.42;1.08;;;18.20;60.90;20.30;93462.00;;;;10566104;27;45177;-63
2022/06/30 12:50:19;;;;;;;3.95;1.17;;;18.20;60.90;20.30;93458.00;;;;10565858;27;45120;-63
2022/06/30 12:56:04;;;;;;;3.33;0.73;;;18.20;60.90;20.30;93452.00;;;;10565628;27;45160;-61
2022/06/30 13:01:27;;;;;;;4.45;1.17;;;18.20;60.90;20.30;93440.00;;;;10565736;27;45289;-62
2022/06/30 13:06:50;;;;;;;3.80;0.88;;;18.10;60.90;20.30;93448.00;;;;10565834;27;45180;-63
2022/06/30 13:12:12;;;;;;;2.67;0.90;;;18.10;61.60;20.30;93450.00;;;;10565844;27;45166;-61
2022/06/30 13:17:33;;;;;;;5.80;0.95;;;18.10;60.80;20.30;93444.00;;;;10564261;27;45220;-62
2022/06/30 13:22:53;;;;;;;2.03;0.93;;;18.20;60.90;20.30;93452.00;;;;10565025;27;45798;-61
2022/06/30 13:28:15;;;;;;;5.47;1.00;;;18.20;60.80;20.30;93452.00;;;;10564687;27;45190;-62
2022/06/30 13:33:36;;;;;;;2.15;0.65;;;18.20;60.80;20.30;93442.00;;;;10565077;27;45403;-61
2022/06/30 13:38:56;;;;;;;2.53;0.90;;;18.20;60.80;20.30;93435.00;;;;10563305;27;45698;-63
2022/06/30 13:44:18;;;;;;;2.60;0.80;;;18.20;60.80;20.30;93441.00;;;;10564461;27;45208;-62
2022/06/30 13:49:40;;;;;;;2.30;0.88;;;18.20;60.80;20.30;93397.00;;;;10563696;27;45177;-63
2022/06/30 13:55:01;;;;;;;2.15;0.73;;;18.20;60.80;20.30;93396.00;;;;10564036;27;45179;-63
2022/06/30 14:00:23;;;;;;;2.38;0.70;;;18.00;60.70;20.30;93413.00;;;;10563548;27;45799;-63
2022/06/30 14:05:44;;;;;;;2.45;0.80;;;18.20;60.70;20.30;93417.00;;;;10563374;27;45129;-63
2022/06/30 14:11:05;;;;;;;1.75;0.70;;;18.20;60.80;20.30;93403.00;;;;10563541;27;45218;-63
2022/06/30 14:16:27;;;;;;;1.27;0.55;;;18.20;60.70;20.30;93395.00;;;;10563373;27;45091;-63
2022/06/30 14:21:48;;;;;;;2.22;0.75;;;18.20;60.70;20.30;93393.00;;;;10562894;27;45667;-63
2022/06/30 14:27:08;;;;;;;1.65;0.70;;;18.20;60.70;20.30;93382.00;;;;10561487;27;45424;-63
2022/06/30 14:32:31;;;;;;;1.70;0.75;;;18.20;60.70;20.40;93393.00;;;;10562718;27;45178;-63
2022/06/30 14:37:52;;;;;;;1.15;0.68;;;18.20;60.70;20.30;93420.00;;;;10561762;27;45222;-63
2022/06/30 14:43:13;;;;;;;2.30;0.50;;;18.20;60.70;20.30;93365.00;;;;10562386;27;45288;-63
2022/06/30 14:48:35;;;;;;;1.38;0.68;;;18.20;60.70;20.40;93415.00;;;;10562050;27;45173;-62
2022/06/30 14:53:55;;;;;;;3.72;0.77;;;18.20;60.70;20.30;93420.00;;;;10562250;27;45111;-63
2022/06/30 14:59:16;;;;;;;1.65;0.70;;;18.20;60.70;20.40;93449.00;;;;10561428;27;45144;-62
2022/06/30 15:04:38;;;;;;;1.30;0.55;;;18.20;60.60;20.40;93491.00;;;;10562188;27;45175;-63
2022/06/30 15:09:58;;;;;;;2.25;0.80;;;18.20;60.70;20.40;93456.00;;;;10561048;27;45679;-62
2022/06/30 15:15:19;;;;;;;3.13;0.73;;;18.20;60.60;20.40;93451.00;;;;10561465;27;45220;-63
2022/06/30 15:20:41;;;;;;;1.83;0.65;;;18.20;60.60;20.40;93451.00;;;;10561777;27;45418;-63
2022/06/30 15:26:02;;;;;;;2.72;0.77;;;18.20;60.60;20.30;93410.00;;;;10560765;27;45161;-63
2022/06/30 15:31:22;;;;;;;2.15;0.70;;;18.20;60.60;20.40;93404.00;;;;10560914;27;45252;-63
2022/06/30 15:36:44;;;;;;;3.35;0.70;;;18.20;60.60;20.40;93416.00;;;;10561671;27;45181;-62
2022/06/30 15:42:11;;;;;;;1.88;0.57;;;18.20;60.60;20.40;93416.00;;;;10568780;27;45401;-63
2022/06/30 15:47:32;;;;;;;1.40;0.70;;;18.20;60.60;20.40;93442.00;;;;10567593;27;45272;-62
2022/06/30 15:52:54;;;;;;;1.70;0.68;;;18.20;60.60;20.40;93419.00;;;;10568132;27;45243;-63
2022/06/30 15:58:14;;;;;;;1.73;0.50;;;18.20;60.50;20.40;93409.00;;;;10567729;27;45753;-63
2022/06/30 16:03:35;;;;;;;1.77;0.60;;;18.20;60.60;20.40;93400.00;;;;10568050;27;45834;-62
2022/06/30 16:08:57;;;;;;;0.85;0.55;;;18.20;60.60;20.40;93402.00;;;;10567277;27;45942;-63
2022/06/30 16:14:18;;;;;;;0.47;0.47;;;18.20;60.60;20.40;93400.00;;;;10567434;27;45108;-63
2022/06/30 16:19:38;;;;;;;1.58;0.60;;;18.20;60.60;20.40;93372.00;;;;10566934;27;45753;-63
2022/06/30 16:25:00;;;;;;;0.98;0.50;;;18.20;60.70;20.40;93378.00;;;;10567490;27;45246;-63
2022/06/30 16:30:21;;;;;;;1.35;0.60;;;18.20;60.60;20.40;93372.00;;;;10566595;27;45148;-63
2022/06/30 16:35:42;;;;;;;0.80;0.50;;;18.20;60.70;20.40;93380.00;;;;10566333;27;45723;-63
2022/06/30 16:41:04;;;;;;;1.50;0.65;;;18.20;60.70;20.40;93416.00;;;;10565659;27;45170;-63
2022/06/30 16:46:24;;;;;;;1.90;0.60;;;18.20;60.70;20.40;93422.00;;;;10565850;27;45687;-63
2022/06/30 16:51:45;;;;;;;0.65;0.60;;;18.20;60.70;20.40;93424.00;;;;10565048;27;45846;-62
2022/06/30 16:57:07;;;;;;;1.08;0.68;;;18.20;60.70;20.40;93435.00;;;;10565611;27;45115;-62
2022/06/30 17:02:28;;;;;;;0.95;0.47;;;18.20;60.70;20.40;93431.00;;;;10565813;27;45189;-62
2022/06/30 17:07:48;;;;;;;0.80;0.50;;;18.20;60.70;20.40;93425.00;;;;10565411;27;45272;-62
2022/06/30 17:13:10;;;;;;;0.40;0.38;;;18.20;60.70;20.40;93419.00;;;;10565763;27;45222;-62
2022/06/30 17:18:30;;;;;;;2.00;0.60;;;18.20;60.70;20.40;93429.00;;;;10565076;27;45219;-62
2022/06/30 17:23:52;;;;;;;0.68;0.60;;;18.20;60.70;20.40;93433.00;;;;10565296;27;45222;-63
2022/06/30 17:29:13;;;;;;;1.02;0.50;;;18.20;60.70;20.40;93440.00;;;;10564535;27;45264;-63
2022/06/30 17:34:34;;;;;;;1.25;0.70;;;18.20;60.70;20.40;93446.00;;;;10564583;27;45220;-63
2022/06/30 17:39:55;;;;;;;1.40;0.63;;;18.20;60.70;20.40;93450.00;;;;10578922;22;45118;-63
2022/06/30 17:45:16;;;;;;;1.10;0.73;;;18.30;60.80;20.40;93447.00;;;;10564169;27;45149;-65
2022/06/30 17:50:37;;;;;;;1.02;0.50;;;18.20;60.80;20.40;93450.00;;;;10564010;27;45182;-64
2022/06/30 17:55:58;;;;;;;0.65;0.60;;;18.30;60.80;20.40;93455.00;;;;10564134;27;45103;-64
2022/06/30 18:01:20;;;;;;;1.02;0.40;;;18.20;60.80;20.40;93505.00;;;;10563440;27;45188;-65
2022/06/30 18:12:19;;;;;;;0.80;0.60;;;18.30;60.80;20.40;93523.00;;;;10563401;27;45261;-64
2022/06/30 18:17:41;;;;;;;0.77;0.50;;;18.20;60.80;20.40;93567.00;;;;10563092;27;45182;-65
2022/06/30 18:23:01;;;;;;;1.70;0.63;;;18.20;60.80;20.40;93586.00;;;;10562939;27;45157;-65
2022/06/30 18:28:22;;;;;;;1.52;0.47;;;18.30;60.90;20.40;93555.00;;;;10562260;27;45698;-64
2022/06/30 18:33:43;;;;;;;0.77;0.50;;;18.30;61.00;20.40;93585.00;;;;10562933;27;45153;-64
2022/06/30 18:39:04;;;;;;;0.85;0.60;;;18.20;61.00;20.40;93588.00;;;;10561882;27;45663;-65
2022/06/30 18:44:25;;;;;;;1.15;0.60;;;18.30;61.10;20.40;93607.00;;;;10562356;27;45485;-65
2022/06/30 18:49:48;;;;;;;0.57;0.57;;;18.20;61.10;20.40;93580.00;;;;10562013;27;45228;-65
2022/06/30 18:55:08;;;;;;;0.77;0.50;;;18.30;61.10;20.40;93571.00;;;;10562497;27;45205;-65
2022/06/30 19:00:29;;;;;;;1.10;0.50;;;18.20;61.20;20.40;93569.00;;;;10561914;27;45365;-65
2022/06/30 19:05:51;;;;;;;0.57;0.57;;;18.30;61.30;20.40;93580.00;;;;10562120;27;45273;-65
2022/06/30 19:11:12;;;;;;;1.10;0.50;;;18.20;61.30;20.40;93619.00;;;;10561424;27;45174;-64
2022/06/30 19:16:32;;;;;;;0.60;0.50;;;18.30;61.30;20.40;93660.00;;;;10569033;27;45217;-65
2022/06/30 19:21:54;;;;;;;0.98;0.52;;;18.20;61.20;20.40;93669.00;;;;10568750;27;45261;-65
2022/06/30 19:27:14;;;;;;;0.73;0.45;;;18.20;61.20;20.40;93689.00;;;;10568789;27;45715;-65
2022/06/30 19:32:35;;;;;;;0.68;0.60;;;18.30;61.40;20.40;93655.00;;;;10569061;27;45158;-65
2022/06/30 19:37:58;;;;;;;0.60;0.60;;;18.20;61.40;20.40;93630.00;;;;10567973;27;45181;-65
2022/06/30 19:43:19;;;;;;;0.63;0.50;;;18.30;61.70;20.40;93616.00;;;;10568701;27;45234;-63
2022/06/30 19:48:41;;;;;;;0.50;0.50;;;18.20;61.70;20.40;93644.00;;;;10568005;27;45011;-65
2022/06/30 19:54:03;;;;;;;0.88;0.50;;;18.20;61.80;20.40;93691.00;;;;10567903;27;45726;-65
2022/06/30 19:59:24;;;;;;;0.60;0.50;;;18.20;61.80;20.40;93696.00;;;;10567744;27;45165;-64
2022/06/30 20:04:59;;;;;;;0.70;0.70;;;18.20;61.60;20.40;93711.00;;;;10567724;27;45184;-65
2022/06/30 20:16:02;;;;;;;0.85;0.60;;;18.20;61.60;20.40;93736.00;;;;10567387;27;45791;-65
2022/06/30 20:21:24;;;;;;;1.13;0.57;;;18.30;61.70;20.40;93774.00;;;;10567237;27;45152;-65
2022/06/30 20:26:46;;;;;;;0.60;0.50;;;18.20;61.80;20.40;93812.00;;;;10566328;27;45640;-65
2022/06/30 20:32:08;;;;;;;0.52;0.50;;;18.20;61.80;20.40;93842.00;;;;10566972;27;45205;-64
2022/06/30 20:37:29;;;;;;;0.40;0.40;;;18.20;61.70;20.40;93849.00;;;;10566817;27;45149;-65
2022/06/30 20:42:51;;;;;;;0.95;0.50;;;18.20;61.80;20.40;93858.00;;;;10566666;27;45105;-64
2022/06/30 20:53:50;;;;;;;0.70;0.55;;;18.20;61.60;20.40;93909.00;;;;10566524;27;45640;-65
2022/06/30 20:59:12;;;;;;;0.55;0.50;;;18.20;61.60;20.40;93916.00;;;;10565701;27;45090;-65
2022/06/30 21:04:33;;;;;;;0.50;0.50;;;18.20;61.60;20.40;93927.00;;;;10565718;27;45161;-65
2022/06/30 21:09:53;;;;;;;0.55;0.50;;;18.20;61.60;20.40;93948.00;;;;10565029;27;45211;-65
2022/06/30 21:15:15;;;;;;;0.55;0.43;;;18.20;61.50;20.40;93950.00;;;;10565166;27;45256;-64
2022/06/30 21:20:36;;;;;;;0.85;0.50;;;18.20;61.60;20.40;93963.00;;;;10564912;27;45162;-64
2022/06/30 21:25:57;;;;;;;0.55;0.55;;;18.20;61.50;20.40;93968.00;;;;10564816;27;45868;-64
2022/06/30 21:31:19;;;;;;;0.77;0.57;;;18.20;61.50;20.40;93926.00;;;;10564564;27;45987;-64
2022/06/30 21:36:40;;;;;;;1.38;0.50;;;18.20;61.40;20.40;93910.00;;;;10564218;27;45787;-65
2022/06/30 21:42:04;;;;;;;0.50;0.50;;;18.20;61.40;20.40;93922.00;;;;10564410;27;45671;-65
2022/06/30 21:47:27;;;;;;;0.60;0.40;;;18.20;61.30;20.30;93919.00;;;;10564063;27;45842;-65
2022/06/30 21:52:48;;;;;;;0.57;0.50;;;18.20;61.30;20.30;93906.00;;;;10564685;27;45169;-65
2022/06/30 21:58:09;;;;;;;0.45;0.45;;;18.20;61.20;20.30;93921.00;;;;10563721;27;45183;-65
2022/06/30 22:03:30;;;;;;;0.60;0.50;;;18.20;61.20;20.30;93938.00;;;;10563972;27;45100;-65
2022/06/30 22:08:51;;;;;;;0.60;0.40;;;18.20;61.20;20.30;93924.00;;;;10563036;27;45463;-65
2022/06/30 22:14:11;;;;;;;0.40;0.30;;;18.20;61.10;20.30;93921.00;;;;10563599;27;45103;-65
2022/06/30 22:19:33;;;;;;;1.20;0.47;;;18.20;61.20;20.30;93922.00;;;;10562883;27;45184;-65
2022/06/30 22:24:54;;;;;;;0.55;0.40;;;18.10;61.10;20.30;93922.00;;;;10562922;27;45185;-64
2022/06/30 22:30:14;;;;;;;0.22;0.22;;;18.20;61.20;20.30;93904.00;;;;10562280;27;45266;-64
2022/06/30 22:35:36;;;;;;;0.52;0.45;;;18.10;61.10;20.30;93870.00;;;;10562707;27;45109;-65
2022/06/30 22:40:57;;;;;;;1.15;0.30;;;18.10;61.10;20.30;93864.00;;;;10561751;27;45181;-65
2022/06/30 22:46:18;;;;;;;0.50;0.30;;;18.10;61.00;20.30;93875.00;;;;10561201;27;45172;-65
2022/06/30 22:51:39;;;;;;;0.45;0.40;;;18.10;61.00;20.30;93870.00;;;;10562513;27;45217;-65
2022/06/30 22:57:02;;;;;;;0.52;0.40;;;18.20;61.00;20.30;93870.00;;;;10561816;27;45168;-65
2022/06/30 23:02:23;;;;;;;0.88;0.50;;;18.10;61.00;20.30;93884.00;;;;10561927;27;45845;-63
2022/06/30 23:07:45;;;;;;;0.32;0.32;;;18.10;61.00;20.30;93900.00;;;;10561066;27;45161;-65
2022/06/30 23:13:06;;;;;;;0.38;0.38;;;18.10;61.00;20.30;93899.00;;;;10561721;27;45203;-65
2022/06/30 23:18:26;;;;;;;0.47;0.40;;;18.10;61.00;20.30;93921.00;;;;10561248;27;45791;-65
2022/06/30 23:23:48;;;;;;;0.65;0.40;;;18.10;61.00;20.30;93929.00;;;;10561599;27;45151;-65
2022/06/30 23:29:09;;;;;;;0.40;0.40;;;18.10;61.00;20.30;93928.00;;;;10560807;27;45144;-65
2022/06/30 23:34:29;;;;;;;0.40;0.40;;;18.10;61.00;20.30;93933.00;;;;10561018;27;45232;-65
2022/06/30 23:39:51;;;;;;;0.30;0.30;;;18.10;61.10;20.30;93924.00;;;;10560306;27;45117;-65
2022/06/30 23:45:11;;;;;;;0.47;0.35;;;18.10;61.10;20.30;93912.00;;;;10561244;27;45225;-65
2022/06/30 23:50:32;;;;;;;0.40;0.40;;;18.10;61.00;20.30;93909.00;;;;10560112;27;45825;-65
2022/06/30 23:55:55;;;;;;;0.43;0.40;;;18.10;61.00;20.30;93910.00;;;;10560483;27;45155;-63
